createdAt,value
2024-05-09T00:00:00.517Z,116.47
2024-05-09T00:01:43.133Z,50.00
2024-05-09T00:02:43.023Z,50.00
2024-05-09T00:03:43.078Z,50.00
2024-05-09T00:04:43.027Z,50.00
2024-05-09T00:05:43.360Z,50.00
2024-05-09T00:06:42.973Z,51.34
2024-05-09T00:07:42.983Z,50.19
2024-05-09T00:08:42.961Z,52.64
2024-05-09T00:09:42.948Z,51.37
2024-05-09T00:10:43.114Z,51.46
2024-05-09T00:11:42.972Z,49.30
2024-05-09T00:12:42.913Z,52.87
2024-05-09T00:13:42.974Z,50.00
2024-05-09T00:14:42.893Z,51.03
2024-05-09T00:15:42.881Z,51.29
2024-05-09T00:16:42.946Z,51.33
2024-05-09T00:17:43.125Z,52.30
2024-05-09T00:18:42.919Z,51.18
2024-05-09T00:19:42.873Z,50.44
2024-05-09T00:20:42.877Z,51.59
2024-05-09T00:21:42.792Z,53.71
2024-05-09T00:22:42.819Z,52.17
2024-05-09T00:23:42.822Z,53.17
2024-05-09T00:24:42.757Z,53.77
2024-05-09T00:25:43.058Z,53.76
2024-05-09T00:26:42.790Z,53.07
2024-05-09T00:27:42.740Z,51.15
2024-05-09T00:28:42.769Z,52.15
2024-05-09T00:29:42.710Z,51.17
2024-05-09T00:30:42.692Z,51.42
2024-05-09T00:31:42.717Z,52.28
2024-05-09T00:32:42.822Z,52.18
2024-05-09T00:33:42.877Z,52.09
2024-05-09T00:34:42.698Z,51.54
2024-05-09T00:35:42.646Z,53.00
2024-05-09T00:36:42.606Z,51.60
2024-05-09T00:37:42.637Z,51.10
2024-05-09T00:38:42.654Z,51.87
2024-05-09T00:39:42.563Z,50.86
2024-05-09T00:40:43.649Z,52.08
2024-05-09T00:41:42.588Z,50.50
2024-05-09T00:42:42.537Z,52.68
2024-05-09T00:43:42.568Z,51.71
2024-05-09T00:44:42.515Z,53.26
2024-05-09T00:45:42.548Z,51.62
2024-05-09T00:46:42.583Z,53.38
2024-05-09T00:47:42.605Z,50.03
2024-05-09T00:48:42.507Z,52.40
2024-05-09T00:49:42.638Z,50.85
2024-05-09T00:50:42.596Z,52.94
2024-05-09T00:51:42.434Z,52.08
2024-05-09T00:52:42.454Z,51.41
2024-05-09T00:53:42.475Z,53.37
2024-05-09T00:54:42.402Z,53.24
2024-05-09T00:55:42.639Z,52.06
2024-05-09T00:56:42.398Z,52.00
2024-05-09T00:57:42.395Z,51.14
2024-05-09T00:58:42.459Z,52.03
2024-05-09T00:59:42.387Z,53.69
2024-05-09T01:00:42.410Z,53.70
2024-05-09T01:01:42.532Z,52.76
2024-05-09T01:02:42.486Z,53.22
2024-05-09T01:03:42.534Z,53.39
2024-05-09T01:04:42.479Z,51.78
2024-05-09T01:05:42.860Z,50.00
2024-05-09T01:06:42.363Z,50.92
2024-05-09T01:07:42.432Z,51.44
2024-05-09T01:08:42.353Z,51.03
2024-05-09T01:09:42.318Z,52.74
2024-05-09T01:10:44.823Z,54.37
2024-05-09T01:11:42.418Z,54.41
2024-05-09T01:12:42.311Z,51.48
2024-05-09T01:13:42.373Z,51.99
2024-05-09T01:14:42.282Z,50.46
2024-05-09T01:15:42.272Z,53.27
2024-05-09T01:16:42.490Z,52.30
2024-05-09T01:17:42.543Z,50.96
2024-05-09T01:18:42.496Z,51.27
2024-05-09T01:19:42.304Z,52.06
2024-05-09T01:20:44.525Z,51.97
2024-05-09T01:21:42.205Z,52.02
2024-05-09T01:22:42.337Z,52.35
2024-05-09T01:23:42.250Z,52.50
2024-05-09T01:24:42.170Z,52.29
2024-05-09T01:25:42.170Z,52.71
2024-05-09T01:26:42.249Z,53.36
2024-05-09T01:27:42.142Z,51.69
2024-05-09T01:28:42.121Z,50.44
2024-05-09T01:29:42.120Z,52.47
2024-05-09T01:30:42.104Z,52.88
2024-05-09T01:31:42.151Z,51.56
2024-05-09T01:32:42.166Z,52.89
2024-05-09T01:33:42.130Z,50.82
2024-05-09T01:34:42.063Z,51.26
2024-05-09T01:35:42.996Z,51.33
2024-05-09T01:36:42.048Z,56.22
2024-05-09T01:37:42.045Z,53.28
2024-05-09T01:38:42.078Z,52.14
2024-05-09T01:39:42.025Z,51.68
2024-05-09T01:40:42.027Z,51.66
2024-05-09T01:41:42.026Z,50.77
2024-05-09T01:42:42.015Z,54.96
2024-05-09T01:43:42.002Z,54.17
2024-05-09T01:44:41.996Z,52.96
2024-05-09T01:45:42.010Z,52.76
2024-05-09T01:46:41.993Z,51.76
2024-05-09T01:47:42.283Z,54.09
2024-05-09T01:48:42.154Z,52.95
2024-05-09T01:49:42.024Z,51.84
2024-05-09T01:50:43.243Z,52.96
2024-05-09T01:51:41.960Z,51.21
2024-05-09T01:52:41.958Z,52.42
2024-05-09T01:53:42.036Z,51.28
2024-05-09T01:54:41.937Z,51.12
2024-05-09T01:55:41.955Z,51.02
2024-05-09T01:56:41.952Z,51.94
2024-05-09T01:57:41.908Z,50.00
2024-05-09T01:58:41.908Z,53.22
2024-05-09T01:59:41.910Z,53.38
2024-05-09T02:00:43.201Z,50.87
2024-05-09T02:01:56.108Z,50.12
2024-05-09T02:02:42.949Z,50.24
2024-05-09T02:03:41.998Z,50.43
2024-05-09T02:04:41.991Z,50.94
2024-05-09T02:05:41.931Z,51.85
2024-05-09T02:06:41.832Z,52.15
2024-05-09T02:07:41.826Z,54.20
2024-05-09T02:08:41.870Z,50.79
2024-05-09T02:09:41.830Z,53.75
2024-05-09T02:10:41.894Z,51.35
2024-05-09T02:11:41.904Z,53.12
2024-05-09T02:12:41.797Z,50.11
2024-05-09T02:13:41.783Z,50.77
2024-05-09T02:14:41.772Z,51.65
2024-05-09T02:15:41.798Z,52.32
2024-05-09T02:16:41.779Z,50.39
2024-05-09T02:17:42.045Z,51.79
2024-05-09T02:18:41.949Z,50.68
2024-05-09T02:19:41.755Z,50.00
2024-05-09T02:20:42.592Z,53.39
2024-05-09T02:21:41.779Z,53.04
2024-05-09T02:22:41.756Z,51.34
2024-05-09T02:23:41.862Z,53.21
2024-05-09T02:24:41.761Z,52.25
2024-05-09T02:25:41.741Z,52.25
2024-05-09T02:26:41.731Z,52.15
2024-05-09T02:27:41.736Z,51.31
2024-05-09T02:28:41.724Z,50.19
2024-05-09T02:29:41.792Z,52.82
2024-05-09T02:30:42.609Z,51.17
2024-05-09T02:31:41.703Z,54.04
2024-05-09T02:32:41.790Z,51.42
2024-05-09T02:33:41.818Z,51.88
2024-05-09T02:34:41.698Z,50.41
2024-05-09T02:35:41.854Z,51.40
2024-05-09T02:36:41.680Z,52.85
2024-05-09T02:37:41.685Z,53.70
2024-05-09T02:38:41.724Z,52.18
2024-05-09T02:39:41.692Z,51.25
2024-05-09T02:40:41.706Z,51.08
2024-05-09T02:41:41.701Z,52.37
2024-05-09T02:42:41.700Z,51.95
2024-05-09T02:43:41.726Z,50.00
2024-05-09T02:44:41.729Z,53.39
2024-05-09T02:45:41.823Z,53.42
2024-05-09T02:46:41.737Z,53.32
2024-05-09T02:47:41.811Z,53.59
2024-05-09T02:48:41.798Z,52.91
2024-05-09T02:49:41.760Z,55.10
2024-05-09T02:50:42.270Z,54.35
2024-05-09T02:51:41.781Z,54.26
2024-05-09T02:52:41.785Z,54.51
2024-05-09T02:53:41.865Z,52.32
2024-05-09T02:54:41.806Z,52.16
2024-05-09T02:55:42.215Z,54.43
2024-05-09T02:56:41.874Z,53.04
2024-05-09T02:57:41.831Z,52.77
2024-05-09T02:58:41.830Z,52.17
2024-05-09T02:59:41.837Z,54.21
2024-05-09T03:00:43.006Z,52.21
2024-05-09T03:01:41.923Z,52.18
2024-05-09T03:02:42.043Z,54.51
2024-05-09T03:03:42.167Z,53.26
2024-05-09T03:04:41.949Z,53.79
2024-05-09T03:05:42.256Z,55.65
2024-05-09T03:06:41.889Z,54.05
2024-05-09T03:07:41.897Z,54.33
2024-05-09T03:08:42.852Z,53.26
2024-05-09T03:09:41.907Z,54.46
2024-05-09T03:10:41.911Z,51.99
2024-05-09T03:11:42.088Z,50.79
2024-05-09T03:12:41.963Z,52.12
2024-05-09T03:13:41.958Z,51.93
2024-05-09T03:14:41.936Z,54.50
2024-05-09T03:15:41.961Z,52.03
2024-05-09T03:16:41.962Z,51.10
2024-05-09T03:17:42.161Z,53.14
2024-05-09T03:18:42.101Z,50.78
2024-05-09T03:19:41.977Z,50.92
2024-05-09T03:20:42.060Z,52.98
2024-05-09T03:21:41.995Z,52.76
2024-05-09T03:22:41.995Z,53.32
2024-05-09T03:23:42.202Z,52.02
2024-05-09T03:24:42.007Z,51.98
2024-05-09T03:25:42.015Z,53.16
2024-05-09T03:26:42.024Z,53.24
2024-05-09T03:27:42.030Z,53.23
2024-05-09T03:28:42.037Z,54.29
2024-05-09T03:29:42.047Z,52.52
2024-05-09T03:30:43.257Z,54.55
2024-05-09T03:31:42.114Z,55.61
2024-05-09T03:32:42.169Z,56.85
2024-05-09T03:33:42.205Z,56.83
2024-05-09T03:34:42.093Z,58.57
2024-05-09T03:35:42.247Z,59.12
2024-05-09T03:36:42.112Z,58.11
2024-05-09T03:37:42.122Z,57.59
2024-05-09T03:38:42.192Z,57.46
2024-05-09T03:39:42.145Z,57.73
2024-05-09T03:40:42.146Z,56.07
2024-05-09T03:41:42.231Z,57.08
2024-05-09T03:42:42.174Z,58.37
2024-05-09T03:43:42.179Z,54.91
2024-05-09T03:44:42.241Z,57.22
2024-05-09T03:45:42.215Z,57.02
2024-05-09T03:46:42.233Z,56.98
2024-05-09T03:47:42.597Z,56.08
2024-05-09T03:48:42.360Z,56.86
2024-05-09T03:49:42.292Z,59.35
2024-05-09T03:50:42.390Z,62.31
2024-05-09T03:51:42.284Z,63.19
2024-05-09T03:52:42.295Z,61.44
2024-05-09T03:53:42.395Z,62.95
2024-05-09T03:54:42.486Z,62.29
2024-05-09T03:55:42.324Z,62.61
2024-05-09T03:56:42.454Z,61.71
2024-05-09T03:57:42.322Z,63.85
2024-05-09T03:58:42.332Z,60.73
2024-05-09T03:59:42.333Z,61.46
2024-05-09T04:00:42.528Z,64.84
2024-05-09T04:01:42.588Z,61.72
2024-05-09T04:02:42.452Z,60.40
2024-05-09T04:03:42.495Z,60.03
2024-05-09T04:04:42.440Z,60.29
2024-05-09T04:05:43.564Z,60.82
2024-05-09T04:06:42.424Z,62.23
2024-05-09T04:07:42.424Z,58.10
2024-05-09T04:08:42.470Z,61.19
2024-05-09T04:09:42.439Z,61.40
2024-05-09T04:10:42.473Z,62.89
2024-05-09T04:11:42.536Z,62.56
2024-05-09T04:12:42.479Z,63.36
2024-05-09T04:13:42.483Z,63.69
2024-05-09T04:14:42.545Z,63.91
2024-05-09T04:15:42.509Z,61.41
2024-05-09T04:16:42.527Z,63.42
2024-05-09T04:17:42.615Z,62.10
2024-05-09T04:18:42.618Z,63.44
2024-05-09T04:19:42.539Z,61.96
2024-05-09T04:20:42.597Z,61.75
2024-05-09T04:21:42.576Z,62.81
2024-05-09T04:22:42.586Z,62.79
2024-05-09T04:23:42.617Z,60.04
2024-05-09T04:24:42.609Z,62.47
2024-05-09T04:25:42.615Z,61.28
2024-05-09T04:26:42.940Z,61.50
2024-05-09T04:27:42.646Z,59.37
2024-05-09T04:28:42.648Z,61.17
2024-05-09T04:29:42.671Z,61.00
2024-05-09T04:30:49.891Z,50.00
2024-05-09T04:31:57.213Z,50.00
2024-05-09T04:32:57.215Z,50.00
2024-05-09T04:33:57.273Z,50.00
2024-05-09T04:34:57.145Z,50.00
2024-05-09T04:35:57.122Z,50.00
2024-05-09T04:36:57.143Z,50.00
2024-05-09T04:37:57.192Z,51.11
2024-05-09T04:38:57.121Z,51.72
2024-05-09T04:39:57.125Z,51.69
2024-05-09T04:40:57.131Z,53.09
2024-05-09T04:41:57.124Z,52.28
2024-05-09T04:42:57.116Z,50.71
2024-05-09T04:43:57.178Z,51.97
2024-05-09T04:44:58.763Z,51.54
2024-05-09T04:45:57.108Z,50.03
2024-05-09T04:46:57.132Z,50.77
2024-05-09T04:47:57.410Z,51.71
2024-05-09T04:48:57.170Z,53.12
2024-05-09T04:49:57.137Z,52.65
2024-05-09T04:50:57.211Z,50.00
2024-05-09T04:51:57.103Z,53.72
2024-05-09T04:52:57.153Z,51.04
2024-05-09T04:53:57.100Z,53.64
2024-05-09T04:54:58.893Z,52.22
2024-05-09T04:55:57.212Z,52.19
2024-05-09T04:56:57.091Z,53.88
2024-05-09T04:57:57.102Z,50.00
2024-05-09T04:58:57.123Z,53.22
2024-05-09T04:59:57.096Z,53.41
2024-05-09T05:00:57.135Z,51.97
2024-05-09T05:01:57.148Z,54.32
2024-05-09T05:02:57.232Z,54.40
2024-05-09T05:03:57.342Z,54.69
2024-05-09T05:04:57.169Z,54.64
2024-05-09T05:05:57.326Z,54.45
2024-05-09T05:06:58.363Z,55.74
2024-05-09T05:07:57.302Z,56.69
2024-05-09T05:08:57.277Z,56.49
2024-05-09T05:09:57.282Z,55.43
2024-05-09T05:10:57.351Z,53.93
2024-05-09T05:11:57.411Z,51.54
2024-05-09T05:12:57.319Z,52.88
2024-05-09T05:13:57.326Z,54.75
2024-05-09T05:14:57.327Z,54.76
2024-05-09T05:15:58.282Z,56.63
2024-05-09T05:16:57.390Z,57.12
2024-05-09T05:17:57.517Z,55.43
2024-05-09T05:18:57.445Z,58.93
2024-05-09T05:19:57.466Z,58.47
2024-05-09T05:20:57.506Z,57.98
2024-05-09T05:21:57.399Z,56.67
2024-05-09T05:22:57.429Z,58.38
2024-05-09T05:23:57.417Z,59.28
2024-05-09T05:24:57.426Z,56.11
2024-05-09T05:25:57.506Z,58.13
2024-05-09T05:26:57.446Z,56.16
2024-05-09T05:27:57.459Z,56.34
2024-05-09T05:28:57.479Z,59.22
2024-05-09T05:29:57.466Z,57.60
2024-05-09T05:30:57.483Z,55.50
2024-05-09T05:31:57.610Z,55.87
2024-05-09T05:32:57.531Z,54.76
2024-05-09T05:33:57.508Z,55.76
2024-05-09T05:34:57.544Z,56.51
2024-05-09T05:35:57.528Z,56.97
2024-05-09T05:36:57.500Z,56.87
2024-05-09T05:37:57.561Z,56.77
2024-05-09T05:38:57.595Z,56.21
2024-05-09T05:39:57.535Z,55.05
2024-05-09T05:40:57.604Z,56.12
2024-05-09T05:41:57.538Z,57.53
2024-05-09T05:42:57.533Z,56.04
2024-05-09T05:43:57.599Z,56.89
2024-05-09T05:44:57.554Z,57.60
2024-05-09T05:45:57.575Z,58.95
2024-05-09T05:46:57.590Z,57.53
2024-05-09T05:47:57.833Z,58.67
2024-05-09T05:48:57.691Z,57.00
2024-05-09T05:49:57.683Z,59.05
2024-05-09T05:50:58.604Z,56.57
2024-05-09T05:51:57.633Z,57.55
2024-05-09T05:52:57.659Z,60.04
2024-05-09T05:53:57.665Z,57.88
2024-05-09T05:54:57.661Z,57.29
2024-05-09T05:55:57.697Z,58.90
2024-05-09T05:56:58.257Z,58.55
2024-05-09T05:57:57.667Z,59.17
2024-05-09T05:58:57.738Z,58.66
2024-05-09T05:59:57.725Z,58.53
2024-05-09T06:00:57.754Z,57.12
2024-05-09T06:01:57.777Z,59.06
2024-05-09T06:02:57.854Z,58.26
2024-05-09T06:03:57.938Z,57.75
2024-05-09T06:04:57.924Z,56.97
2024-05-09T06:05:57.862Z,58.01
2024-05-09T06:06:57.831Z,58.92
2024-05-09T06:07:57.975Z,59.62
2024-05-09T06:08:57.907Z,58.18
2024-05-09T06:09:57.930Z,57.20
2024-05-09T06:10:58.062Z,58.20
2024-05-09T06:11:58.147Z,56.50
2024-05-09T06:12:58.027Z,56.81
2024-05-09T06:13:58.036Z,56.03
2024-05-09T06:14:58.063Z,55.52
2024-05-09T06:15:58.087Z,57.05
2024-05-09T06:16:58.421Z,54.68
2024-05-09T06:17:58.626Z,55.33
2024-05-09T06:18:58.410Z,55.65
2024-05-09T06:19:58.302Z,54.29
2024-05-09T06:20:58.420Z,53.62
2024-05-09T06:21:58.411Z,55.89
2024-05-09T06:22:58.505Z,54.13
2024-05-09T06:23:58.571Z,51.44
2024-05-09T06:24:58.640Z,53.33
2024-05-09T06:25:58.758Z,52.67
2024-05-09T06:26:58.791Z,52.78
2024-05-09T06:27:58.893Z,54.93
2024-05-09T06:28:58.996Z,55.47
2024-05-09T06:29:58.999Z,54.44
2024-05-09T06:30:59.073Z,52.76
2024-05-09T06:32:00.231Z,54.20
2024-05-09T06:32:59.329Z,56.36
2024-05-09T06:33:59.371Z,55.30
2024-05-09T06:34:59.390Z,56.96
2024-05-09T06:35:59.427Z,56.12
2024-05-09T06:36:59.458Z,56.47
2024-05-09T06:37:59.574Z,56.53
2024-05-09T06:38:59.576Z,57.46
2024-05-09T06:39:59.630Z,54.14
2024-05-09T06:40:59.721Z,55.89
2024-05-09T06:41:59.760Z,56.30
2024-05-09T06:42:59.832Z,55.11
2024-05-09T06:43:59.915Z,53.85
2024-05-09T06:44:59.960Z,54.50
2024-05-09T06:46:00.051Z,53.92
2024-05-09T06:47:00.344Z,52.41
2024-05-09T06:48:00.458Z,50.51
2024-05-09T06:49:00.399Z,53.14
2024-05-09T06:50:00.396Z,53.15
2024-05-09T06:51:00.418Z,52.89
2024-05-09T06:52:00.410Z,52.77
2024-05-09T06:53:00.647Z,51.04
2024-05-09T06:54:00.549Z,53.08
2024-05-09T06:55:00.603Z,52.16
2024-05-09T06:56:00.702Z,51.39
2024-05-09T06:57:00.734Z,54.15
2024-05-09T06:58:00.872Z,53.61
2024-05-09T06:59:00.922Z,53.93
2024-05-09T07:01:01.010Z,53.57
2024-05-09T07:02:01.111Z,54.03
2024-05-09T07:03:05.607Z,56.42
2024-05-09T07:04:02.261Z,56.52
2024-05-09T07:05:01.457Z,56.56
2024-05-09T07:06:01.128Z,56.79
2024-05-09T07:07:01.096Z,59.06
2024-05-09T07:08:01.132Z,59.96
2024-05-09T07:09:01.112Z,60.39
2024-05-09T07:10:01.122Z,61.77
2024-05-09T07:11:01.217Z,60.10
2024-05-09T07:12:01.247Z,59.21
2024-05-09T07:13:01.105Z,58.09
2024-05-09T07:14:01.130Z,59.28
2024-05-09T07:15:01.106Z,57.64
2024-05-09T07:16:01.140Z,58.91
2024-05-09T07:17:01.260Z,59.26
2024-05-09T07:18:01.329Z,59.73
2024-05-09T07:19:01.324Z,56.58
2024-05-09T07:20:01.263Z,56.44
2024-05-09T07:21:01.291Z,58.01
2024-05-09T07:22:01.247Z,57.96
2024-05-09T07:23:01.383Z,57.24
2024-05-09T07:24:01.304Z,60.01
2024-05-09T07:25:01.341Z,59.08
2024-05-09T07:26:01.370Z,57.44
2024-05-09T07:27:01.350Z,59.53
2024-05-09T07:28:01.377Z,59.70
2024-05-09T07:29:01.457Z,57.79
2024-05-09T07:30:01.427Z,60.84
2024-05-09T07:31:01.430Z,58.40
2024-05-09T07:32:01.490Z,59.24
2024-05-09T07:33:02.532Z,57.64
2024-05-09T07:34:01.556Z,59.13
2024-05-09T07:35:01.519Z,58.20
2024-05-09T07:36:01.507Z,57.37
2024-05-09T07:37:01.526Z,57.73
2024-05-09T07:38:01.619Z,56.82
2024-05-09T07:39:01.592Z,56.05
2024-05-09T07:40:01.631Z,56.68
2024-05-09T07:41:01.695Z,56.00
2024-05-09T07:42:01.685Z,56.31
2024-05-09T07:43:01.711Z,58.33
2024-05-09T07:44:01.771Z,56.50
2024-05-09T07:45:21.040Z,56.10
2024-05-09T07:46:51.885Z,56.19
2024-05-09T07:53:25.355Z,56.46
2024-05-09T07:53:36.133Z,56.50
2024-05-09T07:54:03.280Z,56.50
2024-05-09T07:55:01.893Z,56.48
2024-05-09T07:56:01.869Z,57.17
2024-05-09T07:57:01.948Z,58.07
2024-05-09T07:58:01.718Z,60.15
2024-05-09T07:59:01.708Z,59.53
2024-05-09T08:00:01.672Z,59.71
2024-05-09T08:01:01.801Z,56.79
2024-05-09T08:02:01.896Z,57.33
2024-05-09T08:03:01.684Z,56.38
2024-05-09T08:04:01.782Z,55.22
2024-05-09T08:05:01.828Z,54.62
2024-05-09T08:06:01.668Z,53.92
2024-05-09T08:07:01.698Z,53.58
2024-05-09T08:08:01.667Z,51.97
2024-05-09T08:09:05.530Z,51.77
2024-05-09T08:10:03.316Z,51.82
2024-05-09T08:11:01.697Z,52.11
2024-05-09T08:12:01.730Z,50.37
2024-05-09T08:13:01.863Z,48.42
2024-05-09T08:14:01.781Z,49.89
2024-05-09T08:15:01.821Z,52.63
2024-05-09T08:16:01.912Z,50.45
2024-05-09T08:17:01.910Z,53.23
2024-05-09T08:18:02.122Z,52.52
2024-05-09T08:19:02.028Z,52.07
2024-05-09T08:20:05.046Z,52.94
2024-05-09T08:21:01.957Z,55.24
2024-05-09T08:22:02.010Z,53.84
2024-05-09T08:23:01.938Z,50.00
2024-05-09T08:24:01.945Z,51.65
2024-05-09T08:25:01.979Z,51.36
2024-05-09T08:26:01.938Z,51.63
2024-05-09T08:27:01.947Z,52.66
2024-05-09T08:28:02.021Z,53.56
2024-05-09T08:29:01.941Z,53.67
2024-05-09T08:30:02.007Z,51.81
2024-05-09T08:31:06.063Z,51.17
2024-05-09T08:32:03.172Z,51.30
2024-05-09T08:33:02.071Z,51.57
2024-05-09T08:34:02.143Z,49.83
2024-05-09T08:35:01.990Z,50.01
2024-05-09T08:36:01.953Z,49.75
2024-05-09T08:37:10.050Z,52.35
2024-05-09T08:38:03.218Z,52.38
2024-05-09T08:39:01.959Z,52.49
2024-05-09T08:40:01.979Z,50.38
2024-05-09T08:41:01.951Z,49.75
2024-05-09T08:42:01.948Z,47.44
2024-05-09T08:43:02.035Z,50.00
2024-05-09T08:44:01.961Z,51.86
2024-05-09T08:45:01.955Z,52.83
2024-05-09T08:46:01.999Z,51.41
2024-05-09T08:47:02.080Z,52.61
2024-05-09T08:48:02.062Z,55.95
2024-05-09T08:49:02.593Z,52.80
2024-05-09T08:50:02.064Z,51.78
2024-05-09T08:51:01.991Z,51.24
2024-05-09T08:52:02.041Z,52.99
2024-05-09T08:53:01.997Z,52.54
2024-05-09T08:54:01.994Z,52.32
2024-05-09T08:55:02.041Z,53.69
2024-05-09T08:56:02.002Z,54.29
2024-05-09T08:57:01.993Z,53.22
2024-05-09T08:58:02.064Z,51.30
2024-05-09T08:59:02.009Z,53.31
2024-05-09T09:00:02.005Z,53.87
2024-05-09T09:01:02.081Z,55.37
2024-05-09T09:02:02.058Z,55.42
2024-05-09T09:03:02.090Z,53.41
2024-05-09T09:04:02.201Z,55.29
2024-05-09T09:05:02.207Z,54.66
2024-05-09T09:06:02.011Z,52.09
2024-05-09T09:07:03.549Z,52.97
2024-05-09T09:08:02.016Z,55.74
2024-05-09T09:09:02.017Z,50.57
2024-05-09T09:10:02.055Z,53.54
2024-05-09T09:11:02.029Z,53.72
2024-05-09T09:12:02.138Z,53.42
2024-05-09T09:13:02.149Z,55.69
2024-05-09T09:14:02.094Z,54.38
2024-05-09T09:15:02.112Z,53.20
2024-05-09T09:16:02.147Z,52.36
2024-05-09T09:17:02.136Z,53.56
2024-05-09T09:18:02.304Z,52.83
2024-05-09T09:19:02.321Z,56.26
2024-05-09T09:20:02.382Z,57.49
2024-05-09T09:21:02.216Z,53.85
2024-05-09T09:22:02.262Z,54.83
2024-05-09T09:23:02.251Z,52.86
2024-05-09T09:24:02.285Z,53.67
2024-05-09T09:25:02.429Z,55.52
2024-05-09T09:26:02.350Z,50.00
2024-05-09T09:27:02.323Z,50.12
2024-05-09T09:28:02.381Z,51.79
2024-05-09T09:29:02.363Z,50.59
2024-05-09T09:30:02.390Z,50.28
2024-05-09T09:31:02.457Z,52.33
2024-05-09T09:32:02.414Z,53.54
2024-05-09T09:33:02.687Z,53.31
2024-05-09T09:34:02.748Z,52.68
2024-05-09T09:35:02.546Z,52.91
2024-05-09T09:36:02.481Z,50.90
2024-05-09T09:37:02.509Z,52.88
2024-05-09T09:38:02.884Z,52.81
2024-05-09T09:39:02.515Z,52.04
2024-05-09T09:40:02.604Z,54.17
2024-05-09T09:41:02.670Z,53.78
2024-05-09T09:42:02.570Z,52.11
2024-05-09T09:43:02.620Z,50.45
2024-05-09T09:44:02.624Z,50.72
2024-05-09T09:45:05.451Z,52.28
2024-05-09T09:46:02.663Z,50.56
2024-05-09T09:47:02.649Z,50.21
2024-05-09T09:48:02.789Z,51.72
2024-05-09T09:49:02.915Z,52.78
2024-05-09T09:50:03.112Z,51.77
2024-05-09T09:51:02.602Z,53.00
2024-05-09T09:52:02.685Z,50.97
2024-05-09T09:53:02.618Z,51.38
2024-05-09T09:54:02.600Z,51.15
2024-05-09T09:55:02.662Z,52.44
2024-05-09T09:56:02.579Z,51.97
2024-05-09T09:57:02.576Z,54.08
2024-05-09T09:58:02.627Z,53.91
2024-05-09T09:59:02.547Z,52.72
2024-05-09T10:00:05.598Z,52.05
2024-05-09T10:01:02.740Z,52.14
2024-05-09T10:02:02.781Z,52.16
2024-05-09T10:03:02.664Z,52.55
2024-05-09T10:04:02.738Z,52.06
2024-05-09T10:05:02.718Z,53.59
2024-05-09T10:06:02.582Z,52.03
2024-05-09T10:07:02.543Z,51.12
2024-05-09T10:08:02.521Z,52.91
2024-05-09T10:09:02.516Z,53.70
2024-05-09T10:10:02.672Z,53.81
2024-05-09T10:11:02.670Z,55.34
2024-05-09T10:12:02.519Z,55.31
2024-05-09T10:13:02.621Z,55.72
2024-05-09T10:14:02.480Z,52.52
2024-05-09T10:15:02.474Z,54.04
2024-05-09T10:16:02.520Z,53.17
2024-05-09T10:17:02.587Z,52.04
2024-05-09T10:18:02.836Z,52.82
2024-05-09T10:19:02.721Z,53.21
2024-05-09T10:20:03.074Z,54.01
2024-05-09T10:21:02.454Z,51.41
2024-05-09T10:22:02.505Z,53.44
2024-05-09T10:23:02.463Z,54.09
2024-05-09T10:24:02.519Z,52.13
2024-05-09T10:25:04.753Z,53.93
2024-05-09T10:26:02.540Z,51.37
2024-05-09T10:27:02.555Z,52.34
2024-05-09T10:28:02.631Z,53.60
2024-05-09T10:29:02.668Z,56.23
2024-05-09T10:31:02.686Z,51.32
2024-05-09T10:32:02.672Z,56.25
2024-05-09T10:33:02.876Z,50.81
2024-05-09T10:34:03.294Z,52.67
2024-05-09T10:35:02.976Z,50.92
2024-05-09T10:36:02.738Z,55.64
2024-05-09T10:37:04.923Z,53.48
2024-05-09T10:38:02.798Z,52.57
2024-05-09T10:39:02.855Z,51.52
2024-05-09T10:40:05.435Z,51.33
2024-05-09T10:41:02.930Z,51.53
2024-05-09T10:42:02.854Z,51.63
2024-05-09T10:43:05.805Z,51.65
2024-05-09T10:44:02.834Z,51.27
2024-05-09T10:45:02.817Z,51.47
2024-05-09T10:46:03.059Z,49.81
2024-05-09T10:47:02.921Z,45.66
2024-05-09T10:48:03.172Z,44.60
2024-05-09T10:49:07.024Z,49.69
2024-05-09T10:50:07.795Z,49.86
2024-05-09T10:51:03.841Z,49.92
2024-05-09T10:52:02.929Z,50.37
2024-05-09T10:53:02.924Z,50.38
2024-05-09T10:54:02.814Z,49.09
2024-05-09T10:55:05.492Z,47.41
2024-05-09T10:56:02.808Z,48.84
2024-05-09T10:57:02.842Z,46.17
2024-05-09T10:58:02.835Z,45.05
2024-05-09T10:59:02.812Z,43.63
2024-05-09T11:00:03.116Z,43.94
2024-05-09T11:01:06.260Z,50.00
2024-05-09T11:02:03.024Z,50.07
2024-05-09T11:03:02.842Z,48.64
2024-05-09T11:04:03.136Z,45.98
2024-05-09T11:05:03.031Z,47.38
2024-05-09T11:06:02.864Z,48.57
2024-05-09T11:07:05.082Z,52.77
2024-05-09T11:08:03.010Z,55.33
2024-05-09T11:09:03.038Z,57.14
2024-05-09T11:10:03.402Z,58.24
2024-05-09T11:11:03.243Z,52.19
2024-05-09T11:12:03.212Z,50.76
2024-05-09T11:13:03.201Z,52.12
2024-05-09T11:14:03.158Z,51.23
2024-05-09T11:15:03.184Z,52.85
2024-05-09T11:16:03.347Z,51.17
2024-05-09T11:17:03.339Z,50.91
2024-05-09T11:18:03.301Z,50.75
2024-05-09T11:19:03.416Z,52.44
2024-05-09T11:20:06.243Z,50.04
2024-05-09T11:21:04.311Z,50.13
2024-05-09T11:22:03.439Z,48.11
2024-05-09T11:23:03.332Z,48.77
2024-05-09T11:24:03.309Z,45.35
2024-05-09T11:25:03.322Z,46.87
2024-05-09T11:26:03.354Z,51.56
2024-05-09T11:27:03.272Z,51.60
2024-05-09T11:28:03.480Z,52.36
2024-05-09T11:29:03.357Z,50.64
2024-05-09T11:30:04.422Z,49.04
2024-05-09T11:31:03.298Z,50.89
2024-05-09T11:32:03.299Z,50.00
2024-05-09T11:33:03.314Z,55.16
2024-05-09T11:34:03.310Z,55.17
2024-05-09T11:35:03.301Z,54.04
2024-05-09T11:36:03.368Z,55.17
2024-05-09T11:37:03.494Z,50.01
2024-05-09T11:38:03.416Z,52.61
2024-05-09T11:39:03.441Z,55.56
2024-05-09T11:40:05.407Z,52.71
2024-05-09T11:41:03.535Z,52.21
2024-05-09T11:42:03.420Z,51.63
2024-05-09T11:43:03.448Z,52.47
2024-05-09T11:44:03.412Z,54.70
2024-05-09T11:45:03.431Z,54.21
2024-05-09T11:46:04.012Z,50.00
2024-05-09T11:47:03.425Z,52.09
2024-05-09T11:48:03.516Z,50.98
2024-05-09T11:49:03.567Z,52.70
2024-05-09T11:50:07.596Z,52.98
2024-05-09T11:51:03.396Z,53.00
2024-05-09T11:52:03.415Z,52.78
2024-05-09T11:53:03.486Z,53.08
2024-05-09T11:54:03.373Z,48.36
2024-05-09T11:55:03.442Z,52.23
2024-05-09T11:56:03.524Z,51.79
2024-05-09T11:57:03.354Z,51.47
2024-05-09T11:58:03.460Z,50.81
2024-05-09T11:59:03.355Z,51.54
2024-05-09T12:00:04.333Z,50.08
2024-05-09T12:01:03.454Z,51.81
2024-05-09T12:02:03.455Z,52.04
2024-05-09T12:03:03.389Z,52.69
2024-05-09T12:04:03.581Z,52.34
2024-05-09T12:05:03.528Z,50.51
2024-05-09T12:06:03.620Z,51.75
2024-05-09T12:07:03.466Z,51.83
2024-05-09T12:08:03.437Z,53.91
2024-05-09T12:09:03.511Z,56.14
2024-05-09T12:10:06.069Z,55.20
2024-05-09T12:11:04.616Z,55.35
2024-05-09T12:12:03.479Z,56.32
2024-05-09T12:13:05.253Z,57.30
2024-05-09T12:14:03.458Z,58.98
2024-05-09T12:15:03.485Z,57.62
2024-05-09T12:16:03.511Z,62.17
2024-05-09T12:17:03.591Z,62.15
2024-05-09T12:18:04.281Z,61.15
2024-05-09T12:19:03.611Z,60.44
2024-05-09T12:20:06.984Z,56.94
2024-05-09T12:21:04.418Z,57.17
2024-05-09T12:22:03.473Z,57.73
2024-05-09T12:23:03.449Z,57.13
2024-05-09T12:24:03.412Z,52.95
2024-05-09T12:25:03.472Z,56.96
2024-05-09T12:26:03.386Z,52.60
2024-05-09T12:27:03.376Z,55.12
2024-05-09T12:28:03.528Z,55.47
2024-05-09T12:29:03.488Z,52.20
2024-05-09T12:30:04.481Z,55.48
2024-05-09T12:31:03.383Z,56.71
2024-05-09T12:32:03.391Z,55.32
2024-05-09T12:33:03.500Z,53.00
2024-05-09T12:34:03.518Z,52.62
2024-05-09T12:35:03.339Z,51.75
2024-05-09T12:36:03.328Z,51.52
2024-05-09T12:37:03.436Z,50.95
2024-05-09T12:38:03.380Z,54.54
2024-05-09T12:39:03.419Z,54.74
2024-05-09T12:40:04.923Z,57.29
2024-05-09T12:41:03.529Z,55.45
2024-05-09T12:42:03.462Z,56.35
2024-05-09T12:43:03.474Z,58.13
2024-05-09T12:44:03.439Z,57.46
2024-05-09T12:45:03.431Z,57.61
2024-05-09T12:46:03.473Z,54.71
2024-05-09T12:47:03.426Z,54.80
2024-05-09T12:48:03.506Z,54.98
2024-05-09T12:49:03.672Z,52.93
2024-05-09T12:50:04.929Z,57.93
2024-05-09T12:51:03.421Z,60.80
2024-05-09T12:52:03.544Z,57.70
2024-05-09T12:53:04.472Z,58.18
2024-05-09T12:54:03.412Z,54.72
2024-05-09T12:55:03.511Z,57.46
2024-05-09T12:56:04.866Z,58.84
2024-05-09T12:57:03.581Z,58.62
2024-05-09T12:58:03.752Z,59.58
2024-05-09T12:59:03.657Z,60.38
2024-05-09T13:00:04.188Z,58.38